sensor_id;sensor_type;location;lat;lon;timestamp;P1;durP1;ratioP1;P2;durP2;ratioP2
38238;SDS011;24035;48.900;9.188;2022-10-31T00:01:15;8.63;;;3.63;;
38238;SDS011;24035;48.900;9.188;2022-10-31T00:03:45;10.35;;;3.60;;
38238;SDS011;24035;48.900;9.188;2022-10-31T00:06:11;8.60;;;3.78;;
38238;SDS011;24035;48.900;9.188;2022-10-31T00:08:37;9.82;;;4.35;;
38238;SDS011;24035;48.900;9.188;2022-10-31T00:11:02;8.40;;;3.38;;
38238;SDS011;24035;48.900;9.188;2022-10-31T00:13:28;9.35;;;4.35;;
38238;SDS011;24035;48.900;9.188;2022-10-31T00:15:54;8.57;;;4.07;;
38238;SDS011;24035;48.900;9.188;2022-10-31T00:18:20;10.07;;;3.47;;
38238;SDS011;24035;48.900;9.188;2022-10-31T00:20:45;6.55;;;3.42;;
38238;SDS011;24035;48.900;9.188;2022-10-31T00:23:11;7.65;;;3.78;;
38238;SDS011;24035;48.900;9.188;2022-10-31T00:25:37;12.88;;;3.63;;
38238;SDS011;24035;48.900;9.188;2022-10-31T00:28:05;8.35;;;4.22;;
38238;SDS011;24035;48.900;9.188;2022-10-31T00:30:32;10.90;;;4.63;;
38238;SDS011;24035;48.900;9.188;2022-10-31T00:32:57;9.20;;;3.78;;
38238;SDS011;24035;48.900;9.188;2022-10-31T00:35:23;8.32;;;3.75;;
38238;SDS011;24035;48.900;9.188;2022-10-31T00:37:49;10.20;;;4.53;;
38238;SDS011;24035;48.900;9.188;2022-10-31T00:40:16;8.55;;;4.07;;
38238;SDS011;24035;48.900;9.188;2022-10-31T00:42:42;10.52;;;3.75;;
38238;SDS011;24035;48.900;9.188;2022-10-31T00:45:08;10.82;;;3.70;;
38238;SDS011;24035;48.900;9.188;2022-10-31T00:47:35;11.18;;;3.33;;
38238;SDS011;24035;48.900;9.188;2022-10-31T00:50:00;8.60;;;4.00;;
38238;SDS011;24035;48.900;9.188;2022-10-31T00:52:27;7.07;;;3.15;;
38238;SDS011;24035;48.900;9.188;2022-10-31T00:54:52;7.78;;;3.40;;
38238;SDS011;24035;48.900;9.188;2022-10-31T00:57:18;6.80;;;3.40;;
38238;SDS011;24035;48.900;9.188;2022-10-31T00:59:44;9.45;;;3.60;;
38238;SDS011;24035;48.900;9.188;2022-10-31T01:02:09;6.72;;;3.50;;
38238;SDS011;24035;48.900;9.188;2022-10-31T01:04:35;11.50;;;3.58;;
38238;SDS011;24035;48.900;9.188;2022-10-31T01:07:01;7.75;;;3.70;;
38238;SDS011;24035;48.900;9.188;2022-10-31T01:09:26;7.25;;;3.38;;
38238;SDS011;24035;48.900;9.188;2022-10-31T01:11:52;8.93;;;3.63;;
38238;SDS011;24035;48.900;9.188;2022-10-31T01:14:18;9.23;;;3.17;;
38238;SDS011;24035;48.900;9.188;2022-10-31T01:16:43;7.43;;;3.15;;
38238;SDS011;24035;48.900;9.188;2022-10-31T01:19:09;8.43;;;3.92;;
38238;SDS011;24035;48.900;9.188;2022-10-31T01:21:34;7.57;;;3.17;;
38238;SDS011;24035;48.900;9.188;2022-10-31T01:24:00;7.88;;;3.60;;
38238;SDS011;24035;48.900;9.188;2022-10-31T01:26:29;8.35;;;3.65;;
38238;SDS011;24035;48.900;9.188;2022-10-31T01:28:58;10.02;;;3.85;;
38238;SDS011;24035;48.900;9.188;2022-10-31T01:31:34;12.80;;;3.25;;
38238;SDS011;24035;48.900;9.188;2022-10-31T01:34:01;8.23;;;3.03;;
38238;SDS011;24035;48.900;9.188;2022-10-31T01:36:28;8.20;;;3.38;;
38238;SDS011;24035;48.900;9.188;2022-10-31T01:38:57;6.70;;;3.08;;
38238;SDS011;24035;48.900;9.188;2022-10-31T01:41:26;6.75;;;3.03;;
38238;SDS011;24035;48.900;9.188;2022-10-31T01:43:55;8.93;;;3.45;;
38238;SDS011;24035;48.900;9.188;2022-10-31T01:46:31;7.10;;;3.20;;
38238;SDS011;24035;48.900;9.188;2022-10-31T01:49:06;6.00;;;3.10;;
38238;SDS011;24035;48.900;9.188;2022-10-31T01:51:38;8.00;;;3.08;;
38238;SDS011;24035;48.900;9.188;2022-10-31T01:54:09;6.70;;;2.90;;
38238;SDS011;24035;48.900;9.188;2022-10-31T01:56:40;8.43;;;3.70;;
38238;SDS011;24035;48.900;9.188;2022-10-31T01:59:09;10.80;;;3.13;;
38238;SDS011;24035;48.900;9.188;2022-10-31T02:01:38;8.98;;;3.50;;
38238;SDS011;24035;48.900;9.188;2022-10-31T02:04:04;5.32;;;2.78;;
38238;SDS011;24035;48.900;9.188;2022-10-31T02:06:42;8.13;;;3.30;;
38238;SDS011;24035;48.900;9.188;2022-10-31T02:09:09;7.05;;;3.28;;
38238;SDS011;24035;48.900;9.188;2022-10-31T02:11:37;6.75;;;3.15;;
38238;SDS011;24035;48.900;9.188;2022-10-31T02:14:03;7.07;;;3.05;;
38238;SDS011;24035;48.900;9.188;2022-10-31T02:16:29;6.50;;;2.47;;
38238;SDS011;24035;48.900;9.188;2022-10-31T02:18:55;7.93;;;3.50;;
38238;SDS011;24035;48.900;9.188;2022-10-31T02:21:23;8.52;;;3.00;;
38238;SDS011;24035;48.900;9.188;2022-10-31T02:30:27;6.78;;;2.78;;
38238;SDS011;24035;48.900;9.188;2022-10-31T02:33:26;8.77;;;2.70;;
38238;SDS011;24035;48.900;9.188;2022-10-31T02:36:04;7.70;;;3.03;;
38238;SDS011;24035;48.900;9.188;2022-10-31T02:38:42;7.22;;;2.70;;
38238;SDS011;24035;48.900;9.188;2022-10-31T02:42:15;7.15;;;2.80;;
38238;SDS011;24035;48.900;9.188;2022-10-31T02:44:29;8.45;;;2.95;;
38238;SDS011;24035;48.900;9.188;2022-10-31T02:47:02;7.28;;;3.05;;
38238;SDS011;24035;48.900;9.188;2022-10-31T02:50:16;6.88;;;3.10;;
38238;SDS011;24035;48.900;9.188;2022-10-31T02:52:25;6.20;;;2.63;;
38238;SDS011;24035;48.900;9.188;2022-10-31T02:54:52;8.57;;;3.28;;
38238;SDS011;24035;48.900;9.188;2022-10-31T02:57:26;10.27;;;2.95;;
38238;SDS011;24035;48.900;9.188;2022-10-31T02:59:57;7.60;;;3.08;;
38238;SDS011;24035;48.900;9.188;2022-10-31T03:07:48;8.80;;;2.42;;
38238;SDS011;24035;48.900;9.188;2022-10-31T03:10:41;9.48;;;4.45;;
38238;SDS011;24035;48.900;9.188;2022-10-31T03:15:50;5.30;;;2.78;;
38238;SDS011;24035;48.900;9.188;2022-10-31T03:18:29;7.82;;;3.00;;
38238;SDS011;24035;48.900;9.188;2022-10-31T03:21:01;12.48;;;2.65;;
38238;SDS011;24035;48.900;9.188;2022-10-31T03:23:32;8.43;;;3.17;;
38238;SDS011;24035;48.900;9.188;2022-10-31T03:26:00;6.70;;;2.78;;
38238;SDS011;24035;48.900;9.188;2022-10-31T03:28:30;9.88;;;2.75;;
38238;SDS011;24035;48.900;9.188;2022-10-31T03:31:01;8.68;;;2.55;;
38238;SDS011;24035;48.900;9.188;2022-10-31T03:33:32;7.68;;;2.95;;
38238;SDS011;24035;48.900;9.188;2022-10-31T03:36:01;6.93;;;3.25;;
38238;SDS011;24035;48.900;9.188;2022-10-31T03:38:31;11.40;;;3.22;;
38238;SDS011;24035;48.900;9.188;2022-10-31T03:44:20;8.35;;;3.15;;
38238;SDS011;24035;48.900;9.188;2022-10-31T03:46:48;6.65;;;2.28;;
38238;SDS011;24035;48.900;9.188;2022-10-31T03:49:14;5.88;;;2.75;;
38238;SDS011;24035;48.900;9.188;2022-10-31T03:56:49;5.85;;;2.60;;
38238;SDS011;24035;48.900;9.188;2022-10-31T03:59:24;5.78;;;2.80;;
38238;SDS011;24035;48.900;9.188;2022-10-31T04:01:57;8.05;;;2.85;;
38238;SDS011;24035;48.900;9.188;2022-10-31T04:04:27;7.70;;;3.00;;
38238;SDS011;24035;48.900;9.188;2022-10-31T04:06:55;6.07;;;2.53;;
38238;SDS011;24035;48.900;9.188;2022-10-31T04:09:24;7.20;;;2.83;;
38238;SDS011;24035;48.900;9.188;2022-10-31T04:11:53;6.20;;;2.85;;
38238;SDS011;24035;48.900;9.188;2022-10-31T04:14:22;7.43;;;2.50;;
38238;SDS011;24035;48.900;9.188;2022-10-31T04:16:50;7.90;;;2.47;;
38238;SDS011;24035;48.900;9.188;2022-10-31T04:19:16;6.50;;;2.60;;
38238;SDS011;24035;48.900;9.188;2022-10-31T04:21:42;6.63;;;2.33;;
38238;SDS011;24035;48.900;9.188;2022-10-31T04:24:11;9.05;;;2.78;;
38238;SDS011;24035;48.900;9.188;2022-10-31T04:26:36;7.07;;;2.35;;
38238;SDS011;24035;48.900;9.188;2022-10-31T04:29:02;5.50;;;2.70;;
38238;SDS011;24035;48.900;9.188;2022-10-31T04:31:28;9.13;;;3.03;;
38238;SDS011;24035;48.900;9.188;2022-10-31T04:33:54;11.60;;;4.13;;
38238;SDS011;24035;48.900;9.188;2022-10-31T04:36:19;10.95;;;4.40;;
38238;SDS011;24035;48.900;9.188;2022-10-31T04:38:45;8.30;;;3.80;;
38238;SDS011;24035;48.900;9.188;2022-10-31T04:41:11;12.98;;;4.40;;
38238;SDS011;24035;48.900;9.188;2022-10-31T04:43:37;11.48;;;4.28;;
38238;SDS011;24035;48.900;9.188;2022-10-31T04:46:03;8.32;;;3.55;;
38238;SDS011;24035;48.900;9.188;2022-10-31T04:48:29;10.10;;;3.67;;
38238;SDS011;24035;48.900;9.188;2022-10-31T04:50:58;11.38;;;4.72;;
38238;SDS011;24035;48.900;9.188;2022-10-31T04:53:27;9.00;;;4.23;;
38238;SDS011;24035;48.900;9.188;2022-10-31T04:55:53;9.60;;;3.50;;
38238;SDS011;24035;48.900;9.188;2022-10-31T04:58:19;8.23;;;3.72;;
38238;SDS011;24035;48.900;9.188;2022-10-31T05:00:45;9.82;;;3.70;;
38238;SDS011;24035;48.900;9.188;2022-10-31T05:03:10;8.93;;;3.40;;
38238;SDS011;24035;48.900;9.188;2022-10-31T05:05:36;7.43;;;3.00;;
38238;SDS011;24035;48.900;9.188;2022-10-31T05:08:02;6.78;;;2.90;;
38238;SDS011;24035;48.900;9.188;2022-10-31T05:10:28;10.25;;;2.75;;
38238;SDS011;24035;48.900;9.188;2022-10-31T05:12:56;7.75;;;3.58;;
38238;SDS011;24035;48.900;9.188;2022-10-31T05:15:25;8.32;;;2.33;;
38238;SDS011;24035;48.900;9.188;2022-10-31T05:17:52;12.30;;;2.58;;
38238;SDS011;24035;48.900;9.188;2022-10-31T05:20:19;11.70;;;2.78;;
38238;SDS011;24035;48.900;9.188;2022-10-31T05:22:48;9.00;;;2.80;;
38238;SDS011;24035;48.900;9.188;2022-10-31T05:25:15;6.32;;;2.63;;
38238;SDS011;24035;48.900;9.188;2022-10-31T05:27:43;9.45;;;2.60;;
38238;SDS011;24035;48.900;9.188;2022-10-31T05:30:11;6.95;;;2.58;;
38238;SDS011;24035;48.900;9.188;2022-10-31T05:32:39;6.68;;;2.80;;
38238;SDS011;24035;48.900;9.188;2022-10-31T05:35:10;7.10;;;2.58;;
38238;SDS011;24035;48.900;9.188;2022-10-31T05:37:37;7.43;;;2.90;;
38238;SDS011;24035;48.900;9.188;2022-10-31T05:40:04;7.10;;;2.80;;
38238;SDS011;24035;48.900;9.188;2022-10-31T05:42:32;9.73;;;2.88;;
38238;SDS011;24035;48.900;9.188;2022-10-31T05:44:58;7.95;;;2.33;;
38238;SDS011;24035;48.900;9.188;2022-10-31T05:47:24;7.95;;;3.55;;
38238;SDS011;24035;48.900;9.188;2022-10-31T05:49:50;12.57;;;3.13;;
38238;SDS011;24035;48.900;9.188;2022-10-31T05:52:16;8.77;;;2.80;;
38238;SDS011;24035;48.900;9.188;2022-10-31T05:54:46;5.72;;;2.53;;
38238;SDS011;24035;48.900;9.188;2022-10-31T05:57:12;5.57;;;2.45;;
38238;SDS011;24035;48.900;9.188;2022-10-31T05:59:38;13.75;;;3.15;;
38238;SDS011;24035;48.900;9.188;2022-10-31T06:02:03;8.00;;;2.90;;
38238;SDS011;24035;48.900;9.188;2022-10-31T06:04:29;8.27;;;2.63;;
38238;SDS011;24035;48.900;9.188;2022-10-31T06:06:56;7.47;;;2.85;;
38238;SDS011;24035;48.900;9.188;2022-10-31T06:09:21;8.55;;;3.40;;
38238;SDS011;24035;48.900;9.188;2022-10-31T06:11:47;9.23;;;2.85;;
38238;SDS011;24035;48.900;9.188;2022-10-31T06:14:13;6.60;;;2.35;;
38238;SDS011;24035;48.900;9.188;2022-10-31T06:16:39;5.60;;;2.47;;
38238;SDS011;24035;48.900;9.188;2022-10-31T06:19:05;9.85;;;2.63;;
38238;SDS011;24035;48.900;9.188;2022-10-31T06:21:30;10.02;;;2.88;;
38238;SDS011;24035;48.900;9.188;2022-10-31T06:23:56;5.63;;;2.78;;
38238;SDS011;24035;48.900;9.188;2022-10-31T06:26:22;7.65;;;2.83;;
38238;SDS011;24035;48.900;9.188;2022-10-31T06:28:48;8.20;;;2.60;;
38238;SDS011;24035;48.900;9.188;2022-10-31T06:31:14;6.60;;;2.65;;
38238;SDS011;24035;48.900;9.188;2022-10-31T06:33:42;8.65;;;2.80;;
38238;SDS011;24035;48.900;9.188;2022-10-31T06:36:08;5.65;;;2.47;;
38238;SDS011;24035;48.900;9.188;2022-10-31T06:38:35;6.00;;;2.60;;
38238;SDS011;24035;48.900;9.188;2022-10-31T06:41:04;8.63;;;2.70;;
38238;SDS011;24035;48.900;9.188;2022-10-31T06:43:31;5.50;;;2.78;;
38238;SDS011;24035;48.900;9.188;2022-10-31T06:45:57;7.38;;;2.70;;
38238;SDS011;24035;48.900;9.188;2022-10-31T06:48:26;8.68;;;2.40;;
38238;SDS011;24035;48.900;9.188;2022-10-31T06:50:52;5.80;;;2.33;;
38238;SDS011;24035;48.900;9.188;2022-10-31T06:53:17;6.18;;;2.58;;
38238;SDS011;24035;48.900;9.188;2022-10-31T06:55:43;9.25;;;2.85;;
38238;SDS011;24035;48.900;9.188;2022-10-31T06:58:09;8.18;;;2.65;;
38238;SDS011;24035;48.900;9.188;2022-10-31T07:00:36;6.57;;;2.58;;
38238;SDS011;24035;48.900;9.188;2022-10-31T07:03:02;5.15;;;2.53;;
38238;SDS011;24035;48.900;9.188;2022-10-31T07:05:30;5.07;;;2.28;;
38238;SDS011;24035;48.900;9.188;2022-10-31T07:07:59;7.18;;;2.65;;
38238;SDS011;24035;48.900;9.188;2022-10-31T07:10:26;10.00;;;2.63;;
38238;SDS011;24035;48.900;9.188;2022-10-31T07:12:57;7.63;;;2.78;;
38238;SDS011;24035;48.900;9.188;2022-10-31T07:15:24;9.18;;;2.42;;
38238;SDS011;24035;48.900;9.188;2022-10-31T07:17:51;10.82;;;3.00;;
38238;SDS011;24035;48.900;9.188;2022-10-31T07:20:17;6.65;;;2.88;;
38238;SDS011;24035;48.900;9.188;2022-10-31T07:22:43;5.75;;;2.67;;
38238;SDS011;24035;48.900;9.188;2022-10-31T07:25:09;5.30;;;2.58;;
38238;SDS011;24035;48.900;9.188;2022-10-31T07:27:39;7.70;;;2.42;;
38238;SDS011;24035;48.900;9.188;2022-10-31T07:30:06;6.57;;;2.33;;
38238;SDS011;24035;48.900;9.188;2022-10-31T07:32:43;8.13;;;2.97;;
38238;SDS011;24035;48.900;9.188;2022-10-31T07:35:11;10.73;;;2.85;;
38238;SDS011;24035;48.900;9.188;2022-10-31T07:37:41;5.83;;;2.67;;
38238;SDS011;24035;48.900;9.188;2022-10-31T07:40:07;6.28;;;2.70;;
38238;SDS011;24035;48.900;9.188;2022-10-31T07:45:07;9.07;;;4.20;;
38238;SDS011;24035;48.900;9.188;2022-10-31T07:47:44;5.63;;;2.88;;
38238;SDS011;24035;48.900;9.188;2022-10-31T07:50:12;7.65;;;2.70;;
38238;SDS011;24035;48.900;9.188;2022-10-31T07:52:39;6.38;;;2.33;;
38238;SDS011;24035;48.900;9.188;2022-10-31T07:55:05;8.65;;;2.25;;
38238;SDS011;24035;48.900;9.188;2022-10-31T07:57:31;7.28;;;2.72;;
38238;SDS011;24035;48.900;9.188;2022-10-31T07:59:58;7.32;;;2.70;;
38238;SDS011;24035;48.900;9.188;2022-10-31T08:02:23;5.82;;;2.45;;
38238;SDS011;24035;48.900;9.188;2022-10-31T08:04:49;15.30;;;2.92;;
38238;SDS011;24035;48.900;9.188;2022-10-31T08:07:15;5.40;;;2.28;;
38238;SDS011;24035;48.900;9.188;2022-10-31T08:09:41;6.22;;;2.47;;
38238;SDS011;24035;48.900;9.188;2022-10-31T08:12:07;6.50;;;2.42;;
38238;SDS011;24035;48.900;9.188;2022-10-31T08:14:33;7.50;;;2.63;;
38238;SDS011;24035;48.900;9.188;2022-10-31T08:16:58;6.88;;;2.70;;
38238;SDS011;24035;48.900;9.188;2022-10-31T08:19:24;8.00;;;2.53;;
38238;SDS011;24035;48.900;9.188;2022-10-31T08:21:50;6.88;;;2.38;;
38238;SDS011;24035;48.900;9.188;2022-10-31T08:24:19;6.65;;;2.60;;
38238;SDS011;24035;48.900;9.188;2022-10-31T08:26:50;6.57;;;2.53;;
38238;SDS011;24035;48.900;9.188;2022-10-31T08:29:23;5.68;;;2.50;;
38238;SDS011;24035;48.900;9.188;2022-10-31T08:31:48;7.38;;;2.65;;
38238;SDS011;24035;48.900;9.188;2022-10-31T08:34:17;6.03;;;2.75;;
38238;SDS011;24035;48.900;9.188;2022-10-31T08:36:45;7.35;;;2.50;;
38238;SDS011;24035;48.900;9.188;2022-10-31T08:39:11;6.75;;;2.60;;
38238;SDS011;24035;48.900;9.188;2022-10-31T08:41:36;5.03;;;2.60;;
38238;SDS011;24035;48.900;9.188;2022-10-31T08:44:02;8.85;;;3.08;;
38238;SDS011;24035;48.900;9.188;2022-10-31T08:46:28;6.82;;;2.80;;
38238;SDS011;24035;48.900;9.188;2022-10-31T08:48:53;5.63;;;2.40;;
38238;SDS011;24035;48.900;9.188;2022-10-31T08:51:19;7.60;;;2.50;;
38238;SDS011;24035;48.900;9.188;2022-10-31T08:53:45;6.80;;;2.60;;
38238;SDS011;24035;48.900;9.188;2022-10-31T08:56:10;4.80;;;2.47;;
38238;SDS011;24035;48.900;9.188;2022-10-31T08:58:36;8.32;;;3.05;;
38238;SDS011;24035;48.900;9.188;2022-10-31T09:01:02;7.43;;;2.83;;
38238;SDS011;24035;48.900;9.188;2022-10-31T09:03:28;6.93;;;2.92;;
38238;SDS011;24035;48.900;9.188;2022-10-31T09:05:59;7.35;;;2.53;;
38238;SDS011;24035;48.900;9.188;2022-10-31T09:08:28;5.88;;;2.05;;
38238;SDS011;24035;48.900;9.188;2022-10-31T09:10:55;7.00;;;2.58;;
38238;SDS011;24035;48.900;9.188;2022-10-31T09:13:22;10.40;;;2.67;;
38238;SDS011;24035;48.900;9.188;2022-10-31T09:15:48;15.38;;;2.75;;
38238;SDS011;24035;48.900;9.188;2022-10-31T09:18:16;12.40;;;2.88;;
38238;SDS011;24035;48.900;9.188;2022-10-31T09:20:43;6.05;;;3.13;;
38238;SDS011;24035;48.900;9.188;2022-10-31T09:23:14;8.82;;;2.65;;
38238;SDS011;24035;48.900;9.188;2022-10-31T09:25:42;5.50;;;2.50;;
38238;SDS011;24035;48.900;9.188;2022-10-31T09:28:10;7.63;;;3.00;;
38238;SDS011;24035;48.900;9.188;2022-10-31T09:30:37;8.73;;;2.30;;
38238;SDS011;24035;48.900;9.188;2022-10-31T09:33:04;5.93;;;2.13;;
38238;SDS011;24035;48.900;9.188;2022-10-31T09:35:31;4.47;;;2.45;;
38238;SDS011;24035;48.900;9.188;2022-10-31T09:37:58;5.40;;;2.33;;
38238;SDS011;24035;48.900;9.188;2022-10-31T09:40:32;4.22;;;1.98;;
38238;SDS011;24035;48.900;9.188;2022-10-31T09:48:52;5.65;;;2.38;;
38238;SDS011;24035;48.900;9.188;2022-10-31T09:51:33;5.93;;;2.10;;
38238;SDS011;24035;48.900;9.188;2022-10-31T09:54:10;5.95;;;2.78;;
38238;SDS011;24035;48.900;9.188;2022-10-31T09:56:47;4.45;;;2.35;;
38238;SDS011;24035;48.900;9.188;2022-10-31T09:59:17;9.27;;;2.53;;
38238;SDS011;24035;48.900;9.188;2022-10-31T10:01:50;4.75;;;2.05;;
38238;SDS011;24035;48.900;9.188;2022-10-31T10:21:39;7.10;;;2.47;;
38238;SDS011;24035;48.900;9.188;2022-10-31T10:29:47;7.18;;;2.40;;
38238;SDS011;24035;48.900;9.188;2022-10-31T10:32:30;5.95;;;2.20;;
38238;SDS011;24035;48.900;9.188;2022-10-31T10:35:47;6.65;;;2.22;;
38238;SDS011;24035;48.900;9.188;2022-10-31T10:40:48;6.70;;;2.15;;
38238;SDS011;24035;48.900;9.188;2022-10-31T10:43:24;7.60;;;2.35;;
38238;SDS011;24035;48.900;9.188;2022-10-31T11:00:00;7.50;;;2.13;;
38238;SDS011;24035;48.900;9.188;2022-10-31T11:02:30;6.78;;;2.35;;
38238;SDS011;24035;48.900;9.188;2022-10-31T11:04:58;6.10;;;1.92;;
38238;SDS011;24035;48.900;9.188;2022-10-31T11:07:25;5.75;;;2.53;;
38238;SDS011;24035;48.900;9.188;2022-10-31T11:10:05;6.93;;;2.55;;
38238;SDS011;24035;48.900;9.188;2022-10-31T11:12:39;4.70;;;2.20;;
38238;SDS011;24035;48.900;9.188;2022-10-31T11:15:07;6.50;;;2.60;;
38238;SDS011;24035;48.900;9.188;2022-10-31T11:17:51;4.43;;;2.33;;
38238;SDS011;24035;48.900;9.188;2022-10-31T11:22:44;6.53;;;2.40;;
38238;SDS011;24035;48.900;9.188;2022-10-31T11:25:20;6.40;;;2.40;;
38238;SDS011;24035;48.900;9.188;2022-10-31T11:27:46;4.32;;;2.20;;
38238;SDS011;24035;48.900;9.188;2022-10-31T11:30:23;9.27;;;2.75;;
38238;SDS011;24035;48.900;9.188;2022-10-31T11:32:49;4.97;;;2.45;;
38238;SDS011;24035;48.900;9.188;2022-10-31T11:35:20;5.68;;;2.20;;
38238;SDS011;24035;48.900;9.188;2022-10-31T11:37:49;6.30;;;2.60;;
38238;SDS011;24035;48.900;9.188;2022-10-31T11:40:25;9.63;;;3.00;;
38238;SDS011;24035;48.900;9.188;2022-10-31T11:42:52;5.72;;;2.80;;
38238;SDS011;24035;48.900;9.188;2022-10-31T11:47:49;4.30;;;2.35;;
38238;SDS011;24035;48.900;9.188;2022-10-31T11:50:20;6.68;;;3.45;;
38238;SDS011;24035;48.900;9.188;2022-10-31T11:52:49;7.07;;;2.17;;
38238;SDS011;24035;48.900;9.188;2022-10-31T11:55:17;4.78;;;2.42;;
38238;SDS011;24035;48.900;9.188;2022-10-31T11:58:00;6.97;;;2.45;;
38238;SDS011;24035;48.900;9.188;2022-10-31T12:00:27;7.38;;;3.10;;
38238;SDS011;24035;48.900;9.188;2022-10-31T12:06:41;6.82;;;2.50;;
38238;SDS011;24035;48.900;9.188;2022-10-31T12:08:47;7.30;;;2.80;;
38238;SDS011;24035;48.900;9.188;2022-10-31T12:16:25;11.75;;;3.25;;
38238;SDS011;24035;48.900;9.188;2022-10-31T12:19:10;9.07;;;2.60;;
38238;SDS011;24035;48.900;9.188;2022-10-31T12:29:47;6.30;;;3.08;;
38238;SDS011;24035;48.900;9.188;2022-10-31T12:38:22;5.45;;;2.28;;
38238;SDS011;24035;48.900;9.188;2022-10-31T12:46:20;7.32;;;2.75;;
38238;SDS011;24035;48.900;9.188;2022-10-31T12:54:38;8.40;;;2.97;;
38238;SDS011;24035;48.900;9.188;2022-10-31T12:57:16;6.82;;;2.65;;
38238;SDS011;24035;48.900;9.188;2022-10-31T13:07:56;10.32;;;3.08;;
38238;SDS011;24035;48.900;9.188;2022-10-31T13:11:15;9.05;;;2.75;;
38238;SDS011;24035;48.900;9.188;2022-10-31T13:13:26;6.40;;;2.70;;
38238;SDS011;24035;48.900;9.188;2022-10-31T13:16:03;5.13;;;2.20;;
38238;SDS011;24035;48.900;9.188;2022-10-31T13:18:59;5.97;;;2.88;;
38238;SDS011;24035;48.900;9.188;2022-10-31T13:21:44;8.07;;;2.58;;
38238;SDS011;24035;48.900;9.188;2022-10-31T13:24:15;6.13;;;2.88;;
38238;SDS011;24035;48.900;9.188;2022-10-31T13:26:48;6.93;;;2.70;;
38238;SDS011;24035;48.900;9.188;2022-10-31T13:32:12;8.02;;;3.22;;
38238;SDS011;24035;48.900;9.188;2022-10-31T13:34:42;9.48;;;3.10;;
38238;SDS011;24035;48.900;9.188;2022-10-31T13:37:17;5.53;;;2.65;;
38238;SDS011;24035;48.900;9.188;2022-10-31T13:42:42;5.72;;;2.80;;
38238;SDS011;24035;48.900;9.188;2022-10-31T13:45:22;7.43;;;3.50;;
38238;SDS011;24035;48.900;9.188;2022-10-31T13:48:00;6.22;;;2.90;;
38238;SDS011;24035;48.900;9.188;2022-10-31T13:50:42;5.30;;;3.13;;
38238;SDS011;24035;48.900;9.188;2022-10-31T13:53:21;6.57;;;3.22;;
38238;SDS011;24035;48.900;9.188;2022-10-31T13:55:49;7.03;;;3.45;;
38238;SDS011;24035;48.900;9.188;2022-10-31T13:58:27;5.68;;;2.40;;
38238;SDS011;24035;48.900;9.188;2022-10-31T14:03:39;8.27;;;2.78;;
38238;SDS011;24035;48.900;9.188;2022-10-31T14:06:07;6.45;;;2.35;;
38238;SDS011;24035;48.900;9.188;2022-10-31T14:08:35;5.40;;;2.22;;
38238;SDS011;24035;48.900;9.188;2022-10-31T14:11:26;6.68;;;2.50;;
38238;SDS011;24035;48.900;9.188;2022-10-31T14:13:53;7.35;;;2.83;;
38238;SDS011;24035;48.900;9.188;2022-10-31T14:16:28;7.13;;;2.40;;
38238;SDS011;24035;48.900;9.188;2022-10-31T14:18:59;10.52;;;3.72;;
38238;SDS011;24035;48.900;9.188;2022-10-31T14:21:28;6.53;;;2.75;;
38238;SDS011;24035;48.900;9.188;2022-10-31T14:23:56;10.63;;;2.80;;
38238;SDS011;24035;48.900;9.188;2022-10-31T14:28:54;6.72;;;2.80;;
38238;SDS011;24035;48.900;9.188;2022-10-31T14:31:44;8.48;;;2.60;;
38238;SDS011;24035;48.900;9.188;2022-10-31T14:39:47;5.45;;;2.78;;
38238;SDS011;24035;48.900;9.188;2022-10-31T14:53:22;11.73;;;4.07;;
38238;SDS011;24035;48.900;9.188;2022-10-31T14:55:54;10.65;;;3.63;;
38238;SDS011;24035;48.900;9.188;2022-10-31T14:58:24;9.63;;;3.33;;
38238;SDS011;24035;48.900;9.188;2022-10-31T15:00:52;8.10;;;3.42;;
38238;SDS011;24035;48.900;9.188;2022-10-31T15:05:50;12.25;;;4.00;;
38238;SDS011;24035;48.900;9.188;2022-10-31T15:08:40;9.23;;;3.97;;
38238;SDS011;24035;48.900;9.188;2022-10-31T15:11:09;10.10;;;4.70;;
38238;SDS011;24035;48.900;9.188;2022-10-31T15:13:43;14.20;;;5.75;;
38238;SDS011;24035;48.900;9.188;2022-10-31T15:16:10;19.98;;;8.55;;
38238;SDS011;24035;48.900;9.188;2022-10-31T15:18:39;17.52;;;9.15;;
38238;SDS011;24035;48.900;9.188;2022-10-31T15:21:15;17.88;;;9.30;;
38238;SDS011;24035;48.900;9.188;2022-10-31T15:23:42;22.25;;;8.70;;
38238;SDS011;24035;48.900;9.188;2022-10-31T15:26:14;26.17;;;10.65;;
38238;SDS011;24035;48.900;9.188;2022-10-31T15:28:45;48.65;;;22.20;;
38238;SDS011;24035;48.900;9.188;2022-10-31T15:31:22;53.60;;;23.25;;
38238;SDS011;24035;48.900;9.188;2022-10-31T15:33:48;21.73;;;11.23;;
38238;SDS011;24035;48.900;9.188;2022-10-31T15:36:20;12.15;;;5.25;;
38238;SDS011;24035;48.900;9.188;2022-10-31T15:38:47;8.55;;;4.00;;
38238;SDS011;24035;48.900;9.188;2022-10-31T15:43:48;10.25;;;4.95;;
38238;SDS011;24035;48.900;9.188;2022-10-31T15:46:14;13.02;;;6.28;;
38238;SDS011;24035;48.900;9.188;2022-10-31T15:48:43;17.13;;;6.25;;
38238;SDS011;24035;48.900;9.188;2022-10-31T15:51:11;18.55;;;7.55;;
38238;SDS011;24035;48.900;9.188;2022-10-31T15:53:45;18.08;;;7.00;;
38238;SDS011;24035;48.900;9.188;2022-10-31T15:56:22;14.15;;;6.38;;
38238;SDS011;24035;48.900;9.188;2022-10-31T15:58:54;13.85;;;5.90;;
38238;SDS011;24035;48.900;9.188;2022-10-31T16:01:26;13.90;;;6.13;;
38238;SDS011;24035;48.900;9.188;2022-10-31T16:04:05;12.38;;;5.40;;
38238;SDS011;24035;48.900;9.188;2022-10-31T16:09:24;15.30;;;7.03;;
38238;SDS011;24035;48.900;9.188;2022-10-31T16:11:50;35.45;;;8.88;;
38238;SDS011;24035;48.900;9.188;2022-10-31T16:14:25;16.85;;;6.85;;
38238;SDS011;24035;48.900;9.188;2022-10-31T16:16:54;18.38;;;8.07;;
38238;SDS011;24035;48.900;9.188;2022-10-31T16:19:23;15.52;;;6.38;;
38238;SDS011;24035;48.900;9.188;2022-10-31T16:21:53;18.55;;;7.30;;
38238;SDS011;24035;48.900;9.188;2022-10-31T16:24:35;18.48;;;7.55;;
38238;SDS011;24035;48.900;9.188;2022-10-31T16:27:17;17.13;;;7.78;;
38238;SDS011;24035;48.900;9.188;2022-10-31T16:29:44;19.80;;;7.38;;
38238;SDS011;24035;48.900;9.188;2022-10-31T16:34:57;19.27;;;7.95;;
38238;SDS011;24035;48.900;9.188;2022-10-31T16:37:25;21.08;;;8.80;;
38238;SDS011;24035;48.900;9.188;2022-10-31T16:39:51;60.88;;;26.23;;
38238;SDS011;24035;48.900;9.188;2022-10-31T16:42:17;87.85;;;36.63;;
38238;SDS011;24035;48.900;9.188;2022-10-31T16:44:43;93.28;;;38.88;;
38238;SDS011;24035;48.900;9.188;2022-10-31T16:47:14;75.28;;;32.33;;
38238;SDS011;24035;48.900;9.188;2022-10-31T16:49:41;74.75;;;28.80;;
38238;SDS011;24035;48.900;9.188;2022-10-31T16:52:08;39.35;;;20.27;;
38238;SDS011;24035;48.900;9.188;2022-10-31T16:54:34;42.05;;;19.73;;
38238;SDS011;24035;48.900;9.188;2022-10-31T16:57:00;40.38;;;19.75;;
38238;SDS011;24035;48.900;9.188;2022-10-31T16:59:27;37.15;;;18.13;;
38238;SDS011;24035;48.900;9.188;2022-10-31T17:01:54;36.33;;;16.70;;
38238;SDS011;24035;48.900;9.188;2022-10-31T17:04:20;23.75;;;11.55;;
38238;SDS011;24035;48.900;9.188;2022-10-31T17:06:46;30.20;;;11.57;;
38238;SDS011;24035;48.900;9.188;2022-10-31T17:09:12;15.10;;;7.28;;
38238;SDS011;24035;48.900;9.188;2022-10-31T17:11:39;19.88;;;10.20;;
38238;SDS011;24035;48.900;9.188;2022-10-31T17:14:13;15.02;;;6.22;;
38238;SDS011;24035;48.900;9.188;2022-10-31T17:16:39;14.30;;;6.03;;
38238;SDS011;24035;48.900;9.188;2022-10-31T17:19:05;15.23;;;5.90;;
38238;SDS011;24035;48.900;9.188;2022-10-31T17:21:32;12.88;;;4.63;;
38238;SDS011;24035;48.900;9.188;2022-10-31T17:23:58;10.80;;;5.80;;
38238;SDS011;24035;48.900;9.188;2022-10-31T17:26:24;21.00;;;7.20;;
38238;SDS011;24035;48.900;9.188;2022-10-31T17:28:50;18.52;;;7.82;;
38238;SDS011;24035;48.900;9.188;2022-10-31T17:31:23;14.73;;;7.53;;
38238;SDS011;24035;48.900;9.188;2022-10-31T17:33:57;14.32;;;6.20;;